Amarant — CQSF — position and weather

sailwx.info

Track history (hours):
 
Tides and Currents Weather Stations Pressure Air Temp Water Temp Dewpoint Dewpoint Depression Visibility Wind Speed Wind Dir Waves Ship Positions

Amarant

Last reported at 2016-Jun-25 11:33 UTC. Time now 2016-Jun-25 12:30 UTC.
Position N 51°38' E 003°20'.

Length 123 m; draft 6.8 m.

Type: Tanker. MMSI: 255623000.

Date/timePositionNaut miles runAvg speedWind from/ knotsBaromVisibWave heightAir tempDewpointWater temp
2016-Jun-25 11:33N 51°38' E 003°20'9 1.1
2016-Jun-25 03:06N 51°47' E 003°19'0 0.0
2016-Jun-25 02:33N 51°47' E 003°19'0 0.1
2016-Jun-25 01:33N 51°47' E 003°19'0 0.0
2016-Jun-25 00:33N 51°47' E 003°19'0 0.0
2016-Jun-24 23:31N 51°47' E 003°19'0 0.4
2016-Jun-24 22:33N 51°48' E 003°19'1410.5
2016-Jun-24 21:14N 52°01' E 003°21'912.9
2016-Jun-24 20:33N 52°10' E 003°22'1412.5
2016-Jun-24 19:24N 52°24' E 003°27'1011.9
2016-Jun-24 18:32N 52°34' E 003°29'2411.5
2016-Jun-24 16:25N 52°54' E 003°53'1813.2
2016-Jun-24 15:05N 53°06' E 004°15'913.5
2016-Jun-24 14:24N 53°13' E 004°25'1414.0
2016-Jun-24 13:24N 53°26' E 004°33'1412.7
2016-Jun-24 12:19N 53°32' E 004°54'1012.5
2016-Jun-24 11:32N 53°35' E 005°09'1111.3
2016-Jun-24 10:34N 53°39' E 005°27'1110.8
2016-Jun-24 09:32N 53°43' E 005°45'1111.3
2016-Jun-24 08:33N 53°46' E 006°02'1211.8
2016-Jun-24 07:33N 53°51' E 006°21'4013.5
2016-Jun-24 04:33N 53°60' E 007°28'1413.6
2016-Jun-24 03:33N 54°01' E 007°51'1413.5
2016-Jun-24 02:33N 54°00' E 008°14'1212.0
2016-Jun-24 01:33N 53°58' E 008°34'1010.1
2016-Jun-24 00:33N 53°51' E 008°46'10 9.9
2016-Jun-23 23:33N 53°52' E 009°03'1110.9
2016-Jun-23 22:34N 53°50' E 009°21'1313.3
2016-Jun-23 21:33N 53°38' E 009°32'1413.7
2016-Jun-23 20:33N 53°33' E 009°52'5 4.7
2016-Jun-23 19:31N 53°29' E 009°58'0 0.0
2016-Jun-23 18:31N 53°29' E 009°58'0 0.0
2016-Jun-23 17:28N 53°29' E 009°58'0 0.0
2016-Jun-23 16:31N 53°29' E 009°58'0 0.0
2016-Jun-23 15:31N 53°29' E 009°58'0 0.0
2016-Jun-23 14:31N 53°29' E 009°58'0 0.0
2016-Jun-23 13:31N 53°29' E 009°58'0 0.0
2016-Jun-23 12:31N 53°29' E 009°58'0 0.0
2016-Jun-23 11:31N 53°29' E 009°58'0 0.0
2016-Jun-23 10:31N 53°29' E 009°58'0 0.0
2016-Jun-23 09:31N 53°29' E 009°58'0 0.0
2016-Jun-23 08:31N 53°29' E 009°58'0 0.0
2016-Jun-23 07:31N 53°29' E 009°58'2 1.2
2016-Jun-23 05:33N 53°31' E 009°56'7 7.0
2016-Jun-23 04:33N 53°34' E 009°45'6 6.5
2016-Jun-23 03:34N 53°36' E 009°35'7 6.8
2016-Jun-23 02:33N 53°42' E 009°29'6 6.2
2016-Jun-23 01:33N 53°47' E 009°23'6 6.3
2016-Jun-23 00:34N 53°52' E 009°17'5 4.8
2016-Jun-22 23:34N 53°54' E 009°09'6 6.2
2016-Jun-22 22:33N 53°58' E 009°16'10 8.2
2016-Jun-22 21:23N 54°08' E 009°20'22 7.7
2016-Jun-22 18:31N 54°22' E 009°48'7 7.5
2016-Jun-22 17:34N 54°21' E 010°01'5 4.6
2016-Jun-22 16:33N 54°22' E 010°08'2 2.0
2016-Jun-22 15:33N 54°23' E 010°11'1010.0
2016-Jun-22 14:33N 54°31' E 010°22'1413.7
2016-Jun-22 13:33N 54°35' E 010°44'1313.3
2016-Jun-22 12:33N 54°36' E 011°07'1313.5
2016-Jun-22 11:33N 54°31' E 011°29'1313.4
2016-Jun-22 10:33N 54°26' E 011°50'1312.5
2016-Jun-22 09:33N 54°30' E 012°11'1312.8
2016-Jun-22 08:33N 54°40' E 012°23'1413.9
2016-Jun-22 07:34N 54°47' E 012°43'1614.3
2016-Jun-22 06:28N 54°47' E 013°11'1313.9
2016-Jun-22 05:34N 54°46' E 013°32'1713.7
2016-Jun-22 04:19N 54°32' E 013°48'1114.1
2016-Jun-22 03:33N 54°22' E 013°56'1313.3
2016-Jun-22 02:33N 54°13' E 014°12'1413.8
2016-Jun-22 01:33N 53°59' E 014°17'1 1.3
2016-Jun-22 00:33N 53°58' E 014°17'7 7.4
2016-Jun-21 23:33N 53°51' E 014°18'1110.7
2016-Jun-21 22:33N 53°42' E 014°29'10 9.5
2016-Jun-21 21:33N 53°34' E 014°36'8 7.8
2016-Jun-21 20:33N 53°26' E 014°36'1 1.1
2016-Jun-21 19:32N 53°25' E 014°36'0 0.0
2016-Jun-21 18:32N 53°25' E 014°36'0 0.0
2016-Jun-21 17:32N 53°25' E 014°36'0 0.0
2016-Jun-21 16:32N 53°25' E 014°36'0 0.0
2016-Jun-21 15:32N 53°25' E 014°36'0 0.0
2016-Jun-21 14:32N 53°25' E 014°36'0 0.0
2016-Jun-21 13:32N 53°25' E 014°36'0 0.0
2016-Jun-21 12:32N 53°25' E 014°36'0 0.0
2016-Jun-21 11:33N 53°25' E 014°36'0 0.1
2016-Jun-21 10:33N 53°25' E 014°36'6 5.8
2016-Jun-21 09:33N 53°30' E 014°38'9 9.0
2016-Jun-21 08:34N 53°39' E 014°33'10 9.8
2016-Jun-21 07:34N 53°47' E 014°23'15 7.5
2016-Jun-21 05:33N 54°01' E 014°15'2 2.2
2016-Jun-21 04:33N 54°03' E 014°17'0 0.0
2016-Jun-21 03:30N 54°03' E 014°17'0 0.0
2016-Jun-21 02:29N 54°03' E 014°17'0 0.0
2016-Jun-21 01:32N 54°03' E 014°17'0 0.0
2016-Jun-21 00:26N 54°03' E 014°17'0 0.0
2016-Jun-20 23:32N 54°03' E 014°17'0 0.0
2016-Jun-20 22:32N 54°03' E 014°17'0 0.0
2016-Jun-20 21:32N 54°03' E 014°17'0 0.0
2016-Jun-20 20:29N 54°03' E 014°17'0 0.0
2016-Jun-20 19:29N 54°03' E 014°17'0 0.0
2016-Jun-20 18:29N 54°03' E 014°17'0 0.0
2016-Jun-20 17:32N 54°03' E 014°16'0 0.0
2016-Jun-20 16:32N 54°03' E 014°16'0 0.1
2016-Jun-20 15:32N 54°03' E 014°16'0 0.0
2016-Jun-20 14:32N 54°03' E 014°16'0 0.0
2016-Jun-20 13:20N 54°03' E 014°16'0 0.0
2016-Jun-20 12:32N 54°03' E 014°16'0 0.0
2016-Jun-20 11:29N 54°03' E 014°16'0 0.0
2016-Jun-20 10:32N 54°03' E 014°16'0 0.0
2016-Jun-20 09:32N 54°03' E 014°16'0 0.0
2016-Jun-20 08:23N 54°03' E 014°17'0 0.1
2016-Jun-20 07:32N 54°03' E 014°17'0 0.0
2016-Jun-20 06:33N 54°03' E 014°17'0 0.0
2016-Jun-20 05:33N 54°03' E 014°17'0 0.0
2016-Jun-20 04:33N 54°03' E 014°17'0 0.0
2016-Jun-20 03:33N 54°03' E 014°17'0 0.0
2016-Jun-20 02:33N 54°03' E 014°17'0 0.0
2016-Jun-20 01:33N 54°03' E 014°17'0 0.0
2016-Jun-20 00:33N 54°03' E 014°17'0 0.0
2016-Jun-19 23:33N 54°03' E 014°17'0 0.2
2016-Jun-19 22:33N 54°03' E 014°16'8 8.3
2016-Jun-19 21:33N 54°11' E 014°11'3310.1
2016-Jun-19 18:19N 54°36' E 014°46'1113.7
2016-Jun-19 17:33N 54°43' E 015°00'1413.6
2016-Jun-19 16:33N 54°53' E 015°17'1313.2
2016-Jun-19 15:33N 55°02' E 015°32'1313.4
2016-Jun-19 14:33N 55°14' E 015°44'318 7.1
2016-Jun-17 17:26N 59°23' E 021°51'2713.7
2016-Jun-17 15:27N 59°33' E 022°41'1313.8
2016-Jun-17 14:32N 59°32' E 023°06'1313.6
2016-Jun-17 13:33N 59°32' E 023°33'2713.7
2016-Jun-17 11:33N 59°30' E 024°27'7 2.0
2016-Jun-17 08:13N 59°28' E 024°39'0 0.0
2016-Jun-16 15:30N 59°28' E 024°39'0 0.0
2016-Jun-16 14:27N 59°28' E 024°39'0 0.0
2016-Jun-16 13:33N 59°28' E 024°39'0 0.0
2016-Jun-16 12:33N 59°28' E 024°39'0 0.0
2016-Jun-16 11:33N 59°28' E 024°39'0 0.0
2016-Jun-16 10:33N 59°28' E 024°39'0 0.0
2016-Jun-16 08:30N 59°28' E 024°39'0 0.0
2016-Jun-16 07:17N 59°28' E 024°39'0 0.0
2016-Jun-16 05:23N 59°28' E 024°39'0 0.0
2016-Jun-16 04:32N 59°28' E 024°39'0 0.0
2016-Jun-16 03:26N 59°28' E 024°39'0 0.1
2016-Jun-16 02:32N 59°28' E 024°39'0 0.0
2016-Jun-16 01:26N 59°28' E 024°39'0 0.0
2016-Jun-16 00:20N 59°28' E 024°39'0 0.0
2016-Jun-15 23:32N 59°28' E 024°39'0 0.0
2016-Jun-15 22:32N 59°28' E 024°39'0 0.0
2016-Jun-15 21:32N 59°28' E 024°39'0 0.0
2016-Jun-15 20:26N 59°28' E 024°39'0 0.0
2016-Jun-15 18:32N 59°28' E 024°39'0 0.0
2016-Jun-15 17:32N 59°28' E 024°39'0 0.0
2016-Jun-15 13:32N 59°28' E 024°39'0 0.0
2016-Jun-15 12:32N 59°28' E 024°39'  
Track history (hours):
 
Tides and Currents Weather Stations Pressure Air Temp Water Temp Dewpoint Dewpoint Depression Visibility Wind Speed Wind Dir Waves Ship Positions

Amarant

Last reported at 2016-Jun-25 11:33 UTC. Time now 2016-Jun-25 12:30 UTC.
Position N 51°38' E 003°20'.

Length 123 m; draft 6.8 m.

Type: Tanker. MMSI: 255623000.

Date/timePositionNaut miles runAvg speedWind from/ knotsBaromVisibWave heightAir tempDewpointWater temp
2016-Jun-25 11:33N 51°38' E 003°20'9 1.1
2016-Jun-25 03:06N 51°47' E 003°19'0 0.0
2016-Jun-25 02:33N 51°47' E 003°19'0 0.1
2016-Jun-25 01:33N 51°47' E 003°19'0 0.0
2016-Jun-25 00:33N 51°47' E 003°19'0 0.0
2016-Jun-24 23:31N 51°47' E 003°19'0 0.4
2016-Jun-24 22:33N 51°48' E 003°19'1410.5
2016-Jun-24 21:14N 52°01' E 003°21'912.9
2016-Jun-24 20:33N 52°10' E 003°22'1412.5
2016-Jun-24 19:24N 52°24' E 003°27'1011.9
2016-Jun-24 18:32N 52°34' E 003°29'2411.5
2016-Jun-24 16:25N 52°54' E 003°53'1813.2
2016-Jun-24 15:05N 53°06' E 004°15'913.5
2016-Jun-24 14:24N 53°13' E 004°25'1414.0
2016-Jun-24 13:24N 53°26' E 004°33'1412.7
2016-Jun-24 12:19N 53°32' E 004°54'1012.5
2016-Jun-24 11:32N 53°35' E 005°09'1111.3
2016-Jun-24 10:34N 53°39' E 005°27'1110.8
2016-Jun-24 09:32N 53°43' E 005°45'1111.3
2016-Jun-24 08:33N 53°46' E 006°02'1211.8
2016-Jun-24 07:33N 53°51' E 006°21'4013.5
2016-Jun-24 04:33N 53°60' E 007°28'1413.6
2016-Jun-24 03:33N 54°01' E 007°51'1413.5
2016-Jun-24 02:33N 54°00' E 008°14'1212.0
2016-Jun-24 01:33N 53°58' E 008°34'1010.1
2016-Jun-24 00:33N 53°51' E 008°46'10 9.9
2016-Jun-23 23:33N 53°52' E 009°03'1110.9
2016-Jun-23 22:34N 53°50' E 009°21'1313.3
2016-Jun-23 21:33N 53°38' E 009°32'1413.7
2016-Jun-23 20:33N 53°33' E 009°52'5 4.7
2016-Jun-23 19:31N 53°29' E 009°58'0 0.0
2016-Jun-23 18:31N 53°29' E 009°58'0 0.0
2016-Jun-23 17:28N 53°29' E 009°58'0 0.0
2016-Jun-23 16:31N 53°29' E 009°58'0 0.0
2016-Jun-23 15:31N 53°29' E 009°58'0 0.0
2016-Jun-23 14:31N 53°29' E 009°58'0 0.0
2016-Jun-23 13:31N 53°29' E 009°58'0 0.0
2016-Jun-23 12:31N 53°29' E 009°58'0 0.0
2016-Jun-23 11:31N 53°29' E 009°58'0 0.0
2016-Jun-23 10:31N 53°29' E 009°58'0 0.0
2016-Jun-23 09:31N 53°29' E 009°58'0 0.0
2016-Jun-23 08:31N 53°29' E 009°58'0 0.0
2016-Jun-23 07:31N 53°29' E 009°58'2 1.2
2016-Jun-23 05:33N 53°31' E 009°56'7 7.0
2016-Jun-23 04:33N 53°34' E 009°45'6 6.5
2016-Jun-23 03:34N 53°36' E 009°35'7 6.8
2016-Jun-23 02:33N 53°42' E 009°29'6 6.2
2016-Jun-23 01:33N 53°47' E 009°23'6 6.3
2016-Jun-23 00:34N 53°52' E 009°17'5 4.8
2016-Jun-22 23:34N 53°54' E 009°09'6 6.2
2016-Jun-22 22:33N 53°58' E 009°16'10 8.2
2016-Jun-22 21:23N 54°08' E 009°20'22 7.7
2016-Jun-22 18:31N 54°22' E 009°48'7 7.5
2016-Jun-22 17:34N 54°21' E 010°01'5 4.6
2016-Jun-22 16:33N 54°22' E 010°08'2 2.0
2016-Jun-22 15:33N 54°23' E 010°11'1010.0
2016-Jun-22 14:33N 54°31' E 010°22'1413.7
2016-Jun-22 13:33N 54°35' E 010°44'1313.3
2016-Jun-22 12:33N 54°36' E 011°07'1313.5
2016-Jun-22 11:33N 54°31' E 011°29'1313.4
2016-Jun-22 10:33N 54°26' E 011°50'1312.5
2016-Jun-22 09:33N 54°30' E 012°11'1312.8
2016-Jun-22 08:33N 54°40' E 012°23'1413.9
2016-Jun-22 07:34N 54°47' E 012°43'1614.3
2016-Jun-22 06:28N 54°47' E 013°11'1313.9
2016-Jun-22 05:34N 54°46' E 013°32'1713.7
2016-Jun-22 04:19N 54°32' E 013°48'1114.1
2016-Jun-22 03:33N 54°22' E 013°56'1313.3
2016-Jun-22 02:33N 54°13' E 014°12'1413.8
2016-Jun-22 01:33N 53°59' E 014°17'1 1.3
2016-Jun-22 00:33N 53°58' E 014°17'7 7.4
2016-Jun-21 23:33N 53°51' E 014°18'1110.7
2016-Jun-21 22:33N 53°42' E 014°29'10 9.5
2016-Jun-21 21:33N 53°34' E 014°36'8 7.8
2016-Jun-21 20:33N 53°26' E 014°36'1 1.1
2016-Jun-21 19:32N 53°25' E 014°36'0 0.0
2016-Jun-21 18:32N 53°25' E 014°36'0 0.0
2016-Jun-21 17:32N 53°25' E 014°36'0 0.0
2016-Jun-21 16:32N 53°25' E 014°36'0 0.0
2016-Jun-21 15:32N 53°25' E 014°36'0 0.0
2016-Jun-21 14:32N 53°25' E 014°36'0 0.0
2016-Jun-21 13:32N 53°25' E 014°36'0 0.0
2016-Jun-21 12:32N 53°25' E 014°36'0 0.0
2016-Jun-21 11:33N 53°25' E 014°36'0 0.1
2016-Jun-21 10:33N 53°25' E 014°36'6 5.8
2016-Jun-21 09:33N 53°30' E 014°38'9 9.0
2016-Jun-21 08:34N 53°39' E 014°33'10 9.8
2016-Jun-21 07:34N 53°47' E 014°23'15 7.5
2016-Jun-21 05:33N 54°01' E 014°15'2 2.2
2016-Jun-21 04:33N 54°03' E 014°17'0 0.0
2016-Jun-21 03:30N 54°03' E 014°17'0 0.0
2016-Jun-21 02:29N 54°03' E 014°17'0 0.0
2016-Jun-21 01:32N 54°03' E 014°17'0 0.0
2016-Jun-21 00:26N 54°03' E 014°17'0 0.0
2016-Jun-20 23:32N 54°03' E 014°17'0 0.0
2016-Jun-20 22:32N 54°03' E 014°17'0 0.0
2016-Jun-20 21:32N 54°03' E 014°17'0 0.0
2016-Jun-20 20:29N 54°03' E 014°17'0 0.0
2016-Jun-20 19:29N 54°03' E 014°17'0 0.0
2016-Jun-20 18:29N 54°03' E 014°17'0 0.0
2016-Jun-20 17:32N 54°03' E 014°16'0 0.0
2016-Jun-20 16:32N 54°03' E 014°16'0 0.1
2016-Jun-20 15:32N 54°03' E 014°16'0 0.0
2016-Jun-20 14:32N 54°03' E 014°16'0 0.0
2016-Jun-20 13:20N 54°03' E 014°16'0 0.0
2016-Jun-20 12:32N 54°03' E 014°16'0 0.0
2016-Jun-20 11:29N 54°03' E 014°16'0 0.0
2016-Jun-20 10:32N 54°03' E 014°16'0 0.0
2016-Jun-20 09:32N 54°03' E 014°16'0 0.0
2016-Jun-20 08:23N 54°03' E 014°17'0 0.1
2016-Jun-20 07:32N 54°03' E 014°17'0 0.0
2016-Jun-20 06:33N 54°03' E 014°17'0 0.0
2016-Jun-20 05:33N 54°03' E 014°17'0 0.0
2016-Jun-20 04:33N 54°03' E 014°17'0 0.0
2016-Jun-20 03:33N 54°03' E 014°17'0 0.0
2016-Jun-20 02:33N 54°03' E 014°17'0 0.0
2016-Jun-20 01:33N 54°03' E 014°17'0 0.0
2016-Jun-20 00:33N 54°03' E 014°17'0 0.0
2016-Jun-19 23:33N 54°03' E 014°17'0 0.2
2016-Jun-19 22:33N 54°03' E 014°16'8 8.3
2016-Jun-19 21:33N 54°11' E 014°11'3310.1
2016-Jun-19 18:19N 54°36' E 014°46'1113.7
2016-Jun-19 17:33N 54°43' E 015°00'1413.6
2016-Jun-19 16:33N 54°53' E 015°17'1313.2
2016-Jun-19 15:33N 55°02' E 015°32'1313.4
2016-Jun-19 14:33N 55°14' E 015°44'318 7.1
2016-Jun-17 17:26N 59°23' E 021°51'2713.7
2016-Jun-17 15:27N 59°33' E 022°41'1313.8
2016-Jun-17 14:32N 59°32' E 023°06'1313.6
2016-Jun-17 13:33N 59°32' E 023°33'2713.7
2016-Jun-17 11:33N 59°30' E 024°27'7 2.0
2016-Jun-17 08:13N 59°28' E 024°39'0 0.0
2016-Jun-16 15:30N 59°28' E 024°39'0 0.0
2016-Jun-16 14:27N 59°28' E 024°39'0 0.0
2016-Jun-16 13:33N 59°28' E 024°39'0 0.0
2016-Jun-16 12:33N 59°28' E 024°39'0 0.0
2016-Jun-16 11:33N 59°28' E 024°39'0 0.0
2016-Jun-16 10:33N 59°28' E 024°39'0 0.0
2016-Jun-16 08:30N 59°28' E 024°39'0 0.0
2016-Jun-16 07:17N 59°28' E 024°39'0 0.0
2016-Jun-16 05:23N 59°28' E 024°39'0 0.0
2016-Jun-16 04:32N 59°28' E 024°39'0 0.0
2016-Jun-16 03:26N 59°28' E 024°39'0 0.1
2016-Jun-16 02:32N 59°28' E 024°39'0 0.0
2016-Jun-16 01:26N 59°28' E 024°39'0 0.0
2016-Jun-16 00:20N 59°28' E 024°39'0 0.0
2016-Jun-15 23:32N 59°28' E 024°39'0 0.0
2016-Jun-15 22:32N 59°28' E 024°39'0 0.0
2016-Jun-15 21:32N 59°28' E 024°39'0 0.0
2016-Jun-15 20:26N 59°28' E 024°39'0 0.0
2016-Jun-15 18:32N 59°28' E 024°39'0 0.0
2016-Jun-15 17:32N 59°28' E 024°39'0 0.0
2016-Jun-15 13:32N 59°28' E 024°39'0 0.0
2016-Jun-15 12:32N 59°28' E 024°39'  

Dump ship's entire track history